Time;durP1;ratioP1;P1;durP2;ratioP2;P2;SDS_P1;SDS_P2;PMS_P1;PMS_P2;Temp;Humidity;BMP_temperature;BMP_pressure;BME280_temperature;BME280_humidity;BME280_pressure;Samples;Min_cycle;Max_cycle;Signal;HPM_P1;HPM_P2
2023/05/25 00:01:06;;;;;;;0.22;0.22;;;;;;;30.21;34.26;101071.59;7390241;19;20388;-81
2023/05/25 00:03:32;;;;;;;0.30;0.30;;;;;;;30.23;34.15;101066.03;7388587;19;20025;-81
2023/05/25 00:06:01;;;;;;;0.43;0.43;;;;;;;30.26;33.74;101053.34;7389260;19;20015;-81
2023/05/25 00:08:28;;;;;;;1.65;0.63;;;;;;;30.31;33.90;101063.88;7391455;19;20026;-81
2023/05/25 00:10:54;;;;;;;0.25;0.25;;;;;;;30.40;34.61;101068.22;7389403;19;20415;-81
2023/05/25 00:13:21;;;;;;;0.50;0.45;;;;;;;30.52;34.58;101072.16;7392276;19;20022;-80
2023/05/25 00:15:47;;;;;;;1.23;0.65;;;;;;;30.60;34.08;101072.88;7393091;19;20014;-80
2023/05/25 00:18:13;;;;;;;2.40;0.38;;;;;;;30.64;34.26;101067.47;7394516;19;20015;-80
2023/05/25 00:20:39;;;;;;;0.10;0.10;;;;;;;30.73;34.49;101063.94;7392491;19;20026;-81
2023/05/25 00:23:05;;;;;;;0.68;0.22;;;;;;;30.80;34.24;101071.72;7388530;19;20014;-81
2023/05/25 00:25:31;;;;;;;0.30;0.30;;;;;;;30.84;34.35;101066.31;7391415;19;20015;-81
2023/05/25 00:27:57;;;;;;;1.20;0.60;;;;;;;30.84;34.62;101068.44;7388561;19;20007;-81
2023/05/25 00:30:23;;;;;;;0.30;0.30;;;;;;;30.90;34.72;101063.22;7388336;19;20021;-81
2023/05/25 00:32:50;;;;;;;1.63;0.40;;;;;;;30.90;34.78;101069.75;7390626;19;20497;-81
2023/05/25 00:35:16;;;;;;;0.20;0.20;;;;;;;30.95;34.77;101071.59;7389018;19;20021;-81
2023/05/25 00:37:43;;;;;;;6.80;0.75;;;;;;;31.03;34.78;101066.56;7391461;19;20032;-81
2023/05/25 00:40:15;;;;;;;1.05;0.95;;;;;;;31.02;35.10;101059.25;7389762;19;20024;-81
2023/05/25 00:42:42;;;;;;;0.20;0.20;;;;;;;31.09;34.88;101061.31;7388722;19;20029;-81
2023/05/25 00:45:09;;;;;;;1.13;0.30;;;;;;;31.13;34.93;101061.66;7387871;19;20497;-81
2023/05/25 00:47:36;;;;;;;0.57;0.10;;;;;;;31.16;34.91;101065.47;7388882;19;20454;-80
2023/05/25 00:50:06;;;;;;;0.45;0.32;;;;;;;31.17;35.21;101067.75;7391329;19;20077;-81
2023/05/25 00:52:33;;;;;;;0.40;0.40;;;;;;;31.31;35.34;101068.94;7391858;19;20025;-81
2023/05/25 00:55:01;;;;;;;0.90;0.90;;;;;;;31.35;34.85;101075.03;7393117;19;20042;-81
2023/05/25 00:57:32;;;;;;;1.75;0.57;;;;;;;31.42;34.87;101074.19;7389641;19;20017;-81
2023/05/25 01:00:01;;;;;;;0.45;0.32;;;;;;;31.51;35.05;101074.88;7384827;19;20742;-81
2023/05/25 01:02:28;;;;;;;0.75;0.47;;;;;;;31.49;35.04;101084.09;7387742;19;20428;-81
2023/05/25 01:04:58;;;;;;;3.03;0.40;;;;;;;31.50;35.08;101077.00;7387727;19;20046;-81
2023/05/25 01:07:26;;;;;;;0.65;0.65;;;;;;;31.60;35.03;101074.22;7387584;19;20341;-81
2023/05/25 01:09:58;;;;;;;8.75;1.50;;;;;;;31.61;35.00;101078.59;7388463;19;20010;-81
2023/05/25 01:12:28;;;;;;;0.65;0.65;;;;;;;31.61;34.72;101084.34;7390935;19;20078;-81
2023/05/25 01:14:55;;;;;;;2.28;0.65;;;;;;;31.51;35.15;101074.88;7391400;19;20010;-81
2023/05/25 01:17:25;;;;;;;0.30;0.13;;;;;;;31.52;35.26;101079.28;7389117;19;20010;-81
2023/05/25 01:19:53;;;;;;;1.20;0.20;;;;;;;31.52;35.22;101079.28;7388367;19;20038;-81
2023/05/25 01:22:24;;;;;;;0.75;0.25;;;;;;;31.47;35.50;101080.31;7391043;19;20026;-81
2023/05/25 01:24:53;;;;;;;1.20;0.20;;;;;;;31.63;35.28;101081.63;7388219;19;20048;-81
2023/05/25 01:27:38;;;;;;;0.38;0.25;;;;;;;31.66;35.14;101077.59;7389842;19;20371;-81
2023/05/25 01:30:11;;;;;;;1.95;0.65;;;;;;;31.66;35.08;101081.22;7388990;19;20021;-81
2023/05/25 01:32:38;;;;;;;0.50;0.50;;;;;;;31.74;35.26;101081.13;7391212;19;20014;-81
2023/05/25 01:35:06;;;;;;;0.55;0.47;;;;;;;31.75;35.27;101085.53;7390102;19;20037;-81
2023/05/25 01:37:36;;;;;;;3.13;0.63;;;;;;;31.70;35.15;101075.03;7389112;19;20343;-81
2023/05/25 01:40:07;;;;;;;2.65;0.57;;;;;;;31.67;35.20;101070.44;7389500;19;20048;-81
2023/05/25 01:42:34;;;;;;;1.08;0.47;;;;;;;31.68;35.58;101066.22;7388793;19;20078;-81
2023/05/25 01:45:04;;;;;;;1.02;0.75;;;;;;;31.85;35.37;101069.06;7388563;19;20038;-81
2023/05/25 01:47:39;;;;;;;0.60;0.47;;;;;;;31.87;35.28;101078.63;7389819;19;20018;-81
2023/05/25 01:50:14;;;;;;;1.90;0.98;;;;;;;31.91;35.56;101084.72;7388435;19;20036;-81
2023/05/25 01:52:48;;;;;;;5.57;0.68;;;;;;;31.96;35.37;101080.84;7387983;19;20396;-81
2023/05/25 01:55:16;;;;;;;1.20;0.55;;;;;;;31.99;35.38;101081.75;7390114;19;20107;-81
2023/05/25 01:57:48;;;;;;;4.65;0.63;;;;;;;31.99;35.41;101078.88;7388702;19;20018;-81
2023/05/25 02:00:16;;;;;;;0.65;0.40;;;;;;;32.02;35.32;101078.47;7387198;19;20028;-81
2023/05/25 02:02:44;;;;;;;3.45;0.60;;;;;;;32.05;35.54;101085.16;7386430;19;20014;-81
2023/05/25 02:05:11;;;;;;;0.32;0.32;;;;;;;32.04;35.31;101086.50;7387935;19;20010;-81
2023/05/25 02:07:37;;;;;;;1.38;0.40;;;;;;;32.13;35.49;101082.91;7386063;19;20085;-81
2023/05/25 02:10:04;;;;;;;0.73;0.20;;;;;;;32.18;35.33;101084.78;7387107;19;20026;-81
2023/05/25 02:12:30;;;;;;;2.30;0.43;;;;;;;32.26;35.16;101087.53;7388827;19;20078;-81
2023/05/25 02:14:57;;;;;;;0.90;0.47;;;;;;;32.23;35.12;101080.84;7387552;19;20351;-81
2023/05/25 02:17:26;;;;;;;0.10;0.10;;;;;;;32.23;35.09;101080.84;7387980;19;20018;-81
2023/05/25 02:19:53;;;;;;;0.40;0.30;;;;;;;31.52;35.97;101087.91;7386853;19;20018;-81
2023/05/25 02:22:20;;;;;;;0.50;0.30;;;;;;;31.40;35.98;101079.78;7386983;19;20044;-81
2023/05/25 02:24:46;;;;;;;3.03;1.00;;;;;;;31.35;36.29;101092.31;7386121;19;20026;-81
2023/05/25 02:27:13;;;;;;;0.88;0.43;;;;;;;31.28;36.03;101093.16;7388205;19;20011;-81
2023/05/25 02:29:39;;;;;;;2.53;0.40;;;;;;;31.23;36.49;101082.63;7391335;19;20022;-81
2023/05/25 02:32:06;;;;;;;0.77;0.15;;;;;;;31.26;36.61;101081.47;7393733;19;20007;-81
2023/05/25 02:34:32;;;;;;;0.70;0.40;;;;;;;31.20;36.43;101083.84;7394648;19;20011;-81
2023/05/25 02:37:00;;;;;;;7.03;0.60;;;;;;;31.11;36.91;101075.88;7399261;19;20010;-81
2023/05/25 02:39:27;;;;;;;0.98;0.47;;;;;;;31.08;36.60;101085.66;7395440;19;20029;-81
2023/05/25 02:41:54;;;;;;;1.20;0.43;;;;;;;31.10;37.00;101088.72;7392387;19;20423;-81
2023/05/25 02:44:21;;;;;;;0.75;0.45;;;;;;;31.18;36.73;101083.66;7394213;19;20044;-81
2023/05/25 02:46:47;;;;;;;0.70;0.55;;;;;;;31.14;36.67;101086.22;7399970;19;20027;-81
2023/05/25 02:49:13;;;;;;;0.90;0.30;;;;;;;31.25;36.85;101088.56;7398168;19;20015;-81
2023/05/25 02:51:39;;;;;;;1.48;0.75;;;;;;;31.30;36.73;101093.31;7392499;19;20019;-81
2023/05/25 02:54:06;;;;;;;5.60;0.40;;;;;;;31.29;36.33;101085.28;7394340;19;20014;-82
2023/05/25 02:56:33;;;;;;;1.13;0.35;;;;;;;31.34;36.57;101090.78;7398379;19;20003;-81
2023/05/25 02:59:00;;;;;;;0.40;0.25;;;;;;;31.28;36.64;101090.28;7394617;19;20011;-81
2023/05/25 03:01:33;;;;;;;1.70;0.70;;;;;;;31.42;36.21;101096.50;7391340;19;20007;-81
2023/05/25 03:04:00;;;;;;;0.73;0.73;;;;;;;31.49;36.41;101094.88;7390857;19;20066;-81
2023/05/25 03:06:27;;;;;;;0.47;0.30;;;;;;;31.28;36.88;101090.28;7394202;19;20038;-81
2023/05/25 03:08:57;;;;;;;1.95;0.28;;;;;;;31.17;36.98;101099.41;7390718;19;20018;-81
2023/05/25 03:11:24;;;;;;;0.20;0.10;;;;;;;31.14;36.68;101094.84;7391891;19;20007;-81
2023/05/25 03:13:51;;;;;;;1.67;1.00;;;;;;;31.02;37.49;101099.56;7393698;19;20035;-81
2023/05/25 03:16:18;;;;;;;3.53;0.47;;;;;;;31.02;37.15;101104.53;7395672;19;20011;-82
2023/05/25 03:18:45;;;;;;;1.58;0.30;;;;;;;31.23;37.28;101111.44;7397273;19;20122;-81
2023/05/25 03:21:11;;;;;;;5.05;0.47;;;;;;;30.99;37.11;101105.75;7391881;19;20010;-81
2023/05/25 03:23:37;;;;;;;1.10;0.20;;;;;;;31.03;37.31;101108.97;7391752;19;20015;-81
2023/05/25 03:26:07;;;;;;;0.70;0.68;;;;;;;31.20;36.81;101104.00;7393437;19;20022;-81
2023/05/25 03:28:33;;;;;;;0.30;0.30;;;;;;;31.32;36.91;101105.00;7390021;19;20014;-81
2023/05/25 03:31:00;;;;;;;0.85;0.55;;;;;;;30.51;38.06;101110.91;7392560;19;20021;-81
2023/05/25 03:33:27;;;;;;;1.85;0.22;;;;;;;31.18;37.29;101111.69;7392407;19;20014;-81
2023/05/25 03:35:53;;;;;;;2.10;0.60;;;;;;;31.22;37.12;101112.03;7394846;19;20042;-81
2023/05/25 03:38:19;;;;;;;2.28;0.90;;;;;;;31.30;37.04;101113.47;7392167;19;20027;-81
2023/05/25 03:40:46;;;;;;;0.70;0.70;;;;;;;31.39;37.02;101112.81;7392188;19;20023;-81
2023/05/25 03:43:12;;;;;;;0.68;0.47;;;;;;;31.41;37.05;101115.88;7390735;19;20469;-81
2023/05/25 03:45:38;;;;;;;0.82;0.63;;;;;;;31.42;36.79;101117.38;7390944;19;20070;-81
2023/05/25 03:48:05;;;;;;;0.75;0.30;;;;;;;31.47;37.10;101114.88;7393479;19;20015;-81
2023/05/25 03:50:31;;;;;;;0.60;0.50;;;;;;;31.72;36.59;101113.41;7389600;19;20435;-81
2023/05/25 03:52:57;;;;;;;0.45;0.45;;;;;;;31.71;36.75;101119.75;7393042;19;20410;-81
2023/05/25 03:55:23;;;;;;;3.10;0.82;;;;;;;31.77;36.44;101111.63;7394726;19;20039;-81
2023/05/25 03:57:50;;;;;;;1.02;0.63;;;;;;;31.54;37.00;101108.25;7393127;19;20022;-81
2023/05/25 04:00:17;;;;;;;1.05;0.45;;;;;;;31.53;36.83;101106.72;7391452;19;20034;-81
2023/05/25 04:02:43;;;;;;;1.98;0.63;;;;;;;31.46;36.89;101107.56;7391779;19;20018;-81
2023/05/25 04:05:09;;;;;;;1.45;0.60;;;;;;;31.68;36.71;101115.19;7391126;19;20029;-81
2023/05/25 04:07:35;;;;;;;0.80;0.50;;;;;;;31.80;36.61;101113.31;7390857;19;20095;-81
2023/05/25 04:10:03;;;;;;;2.63;0.32;;;;;;;31.91;36.39;101113.56;7388463;19;20334;-81
2023/05/25 04:12:29;;;;;;;0.90;0.43;;;;;;;31.90;36.45;101114.16;7393362;19;20025;-81
2023/05/25 04:14:55;;;;;;;0.45;0.45;;;;;;;32.05;36.61;101122.63;7391551;19;20411;-81
2023/05/25 04:17:23;;;;;;;2.33;0.30;;;;;;;31.99;36.46;101113.47;7390852;19;20121;-81
2023/05/25 04:19:53;;;;;;;1.27;0.32;;;;;;;31.97;36.32;101121.94;7390717;19;20018;-80
2023/05/25 04:22:19;;;;;;;2.33;0.82;;;;;;;31.97;36.56;101122.72;7391690;19;20015;-81
2023/05/25 04:24:47;;;;;;;1.15;0.65;;;;;;;31.97;36.19;101127.72;7391761;19;20500;-81
2023/05/25 04:27:13;;;;;;;0.50;0.30;;;;;;;31.97;36.50;101128.47;7395985;19;20018;-81
2023/05/25 04:29:43;;;;;;;1.55;0.50;;;;;;;31.98;36.44;101121.38;7390997;19;20011;-81
2023/05/25 04:32:28;;;;;;;3.70;0.25;;;;;;;31.99;36.51;101137.28;7393326;19;20018;-81
2023/05/25 04:35:15;;;;;;;1.52;0.50;;;;;;;31.95;36.65;101136.19;7391552;19;20010;-81
2023/05/25 04:37:45;;;;;;;2.05;1.08;;;;;;;32.03;36.87;101136.88;7391148;19;20010;-82
2023/05/25 04:40:13;;;;;;;0.45;0.20;;;;;;;32.14;36.69;101142.09;7389552;19;20472;-81
2023/05/25 04:42:40;;;;;;;0.85;0.45;;;;;;;32.06;36.45;101144.31;7389496;19;20014;-83
2023/05/25 04:45:09;;;;;;;1.23;0.43;;;;;;;31.98;36.51;101147.31;7389140;19;20018;-82
2023/05/25 04:47:36;;;;;;;1.55;0.70;;;;;;;32.06;36.48;101152.97;7389037;19;20018;-82
2023/05/25 04:50:03;;;;;;;2.25;0.47;;;;;;;32.09;36.81;101151.78;7388141;19;20091;-82
2023/05/25 04:52:29;;;;;;;1.17;0.25;;;;;;;32.16;36.68;101150.94;7388563;19;20014;-82
2023/05/25 04:54:55;;;;;;;0.35;0.22;;;;;;;32.14;36.72;101156.50;7393258;19;20018;-83
2023/05/25 04:57:21;;;;;;;5.82;1.30;;;;;;;32.19;36.85;101164.13;7390017;19;20014;-83
2023/05/25 04:59:48;;;;;;;1.95;1.15;;;;;;;32.21;36.67;101163.53;7390053;19;20015;-83
2023/05/25 05:02:14;;;;;;;0.75;0.40;;;;;;;32.18;36.14;101165.50;7389132;19;20452;-83
2023/05/25 05:04:41;;;;;;;1.20;0.57;;;;;;;32.16;36.66;101165.34;7389412;19;20018;-83
2023/05/25 05:07:08;;;;;;;1.50;0.38;;;;;;;32.14;36.79;101174.56;7393836;19;20385;-83
2023/05/25 05:09:34;;;;;;;1.65;0.90;;;;;;;32.16;36.28;101168.22;7389725;19;20350;-83
2023/05/25 05:12:02;;;;;;;1.65;0.73;;;;;;;32.08;36.71;101174.06;7388358;19;20014;-82
2023/05/25 05:14:32;;;;;;;;;;;;;;;31.97;36.90;101168.06;7389944;19;20006;-82
2023/05/25 05:16:58;;;;;;;1.70;0.82;;;;;;;31.85;36.89;101169.91;7392434;19;19921;-82
2023/05/25 05:19:24;;;;;;;0.60;0.45;;;;;;;31.84;37.11;101160.50;7394249;19;20028;-82
2023/05/25 05:21:51;;;;;;;3.05;0.47;;;;;;;31.85;37.36;101167.03;7390336;19;20420;-83
2023/05/25 05:24:18;;;;;;;1.13;0.80;;;;;;;31.94;37.38;101170.03;7394045;19;20038;-82
2023/05/25 05:26:46;;;;;;;1.60;0.65;;;;;;;32.16;37.24;101174.72;7392797;19;20397;-82
2023/05/25 05:29:13;;;;;;;1.42;0.70;;;;;;;32.39;37.04;101167.91;7393760;19;20351;-82
2023/05/25 05:31:39;;;;;;;1.27;0.70;;;;;;;32.53;36.63;101175.59;7387312;19;20018;-82
2023/05/25 05:34:05;;;;;;;1.48;0.73;;;;;;;32.59;36.62;101176.09;7386888;19;20077;-82
2023/05/25 05:36:32;;;;;;;1.98;0.43;;;;;;;32.66;36.35;101180.22;7392232;19;20118;-82
2023/05/25 05:38:59;;;;;;;3.28;0.77;;;;;;;32.73;36.58;101179.34;7392989;19;20020;-82
2023/05/25 05:41:26;;;;;;;0.75;0.43;;;;;;;32.74;35.99;101183.75;7391053;19;20493;-82
2023/05/25 05:43:52;;;;;;;1.63;0.28;;;;;;;32.69;36.20;101185.56;7391306;19;20007;-82
2023/05/25 05:46:18;;;;;;;4.53;0.80;;;;;;;32.70;36.16;101184.19;7389445;19;20014;-82
2023/05/25 05:48:44;;;;;;;5.05;0.95;;;;;;;32.77;36.05;101186.19;7390600;19;20011;-82
2023/05/25 05:51:11;;;;;;;1.55;0.75;;;;;;;32.77;36.20;101180.41;7390565;19;20466;-82
2023/05/25 05:53:37;;;;;;;1.67;0.45;;;;;;;32.86;36.32;101185.47;7393477;19;20046;-82
2023/05/25 05:56:04;;;;;;;0.95;0.40;;;;;;;32.90;35.90;101193.69;7392394;19;20014;-82
2023/05/25 05:58:31;;;;;;;0.73;0.55;;;;;;;32.92;36.01;101196.72;7389190;19;20018;-82
2023/05/25 06:00:58;;;;;;;0.93;0.40;;;;;;;32.85;35.81;101192.59;7390009;19;20115;-81
2023/05/25 06:03:27;;;;;;;1.80;0.70;;;;;;;32.80;36.17;101199.44;7388599;19;20011;-82
2023/05/25 06:05:54;;;;;;;1.90;0.70;;;;;;;32.83;36.53;101198.22;7394571;19;20086;-82
2023/05/25 06:08:20;;;;;;;3.55;0.30;;;;;;;32.95;36.21;101200.53;7391928;19;20011;-82
2023/05/25 06:10:46;;;;;;;5.38;1.15;;;;;;;33.03;36.36;101201.22;7392583;19;20461;-82
2023/05/25 06:13:13;;;;;;;0.88;0.20;;;;;;;33.11;36.04;101202.63;7395812;19;20021;-82
2023/05/25 06:15:41;;;;;;;2.35;0.32;;;;;;;33.18;36.28;101203.88;7396584;19;20015;-82
2023/05/25 06:18:12;;;;;;;1.10;0.40;;;;;;;33.16;36.37;101204.44;7398157;19;20014;-82
2023/05/25 06:20:38;;;;;;;0.50;0.22;;;;;;;32.47;36.75;101203.97;7397361;19;20032;-82
2023/05/25 06:23:05;;;;;;;0.50;0.30;;;;;;;32.62;36.75;101202.97;7396916;19;20037;-81
2023/05/25 06:25:32;;;;;;;4.45;0.82;;;;;;;32.80;37.02;101202.31;7400675;19;20010;-82
2023/05/25 06:27:59;;;;;;;2.70;0.63;;;;;;;32.85;36.71;101204.16;7399579;19;20006;-82
2023/05/25 06:30:26;;;;;;;3.33;0.57;;;;;;;33.00;36.24;101196.66;7401088;19;20021;-82
2023/05/25 06:32:52;;;;;;;1.65;0.55;;;;;;;33.03;36.67;101198.34;7402303;19;20029;-82
2023/05/25 06:35:19;;;;;;;0.90;0.63;;;;;;;33.19;36.30;101199.59;7400937;19;20424;-82
2023/05/25 06:37:48;;;;;;;6.32;1.40;;;;;;;33.28;36.12;101208.28;7398173;19;20468;-83
2023/05/25 06:40:17;;;;;;;0.75;0.40;;;;;;;33.36;36.62;101205.25;7396705;19;20027;-83
2023/05/25 06:42:44;;;;;;;1.40;0.52;;;;;;;33.51;36.28;101207.91;7393913;19;20595;-83
2023/05/25 06:45:30;;;;;;;2.03;0.32;;;;;;;33.86;35.83;101212.06;7396636;19;20010;-83
2023/05/25 06:47:59;;;;;;;2.28;0.95;;;;;;;33.76;35.81;101202.63;7393780;19;20074;-83
2023/05/25 06:50:25;;;;;;;7.85;0.77;;;;;;;33.64;35.83;101207.47;7393594;19;20018;-82
2023/05/25 06:52:52;;;;;;;1.27;0.40;;;;;;;33.34;36.47;101214.53;7396838;19;20030;-83
2023/05/25 06:55:18;;;;;;;0.93;0.40;;;;;;;33.58;35.99;101209.91;7396515;19;20014;-83
2023/05/25 06:57:44;;;;;;;1.95;0.45;;;;;;;33.70;36.02;101216.59;7397564;19;20019;-83
2023/05/25 07:00:11;;;;;;;6.78;1.42;;;;;;;33.87;35.87;101213.59;7392243;19;20031;-83
2023/05/25 07:02:38;;;;;;;3.15;1.00;;;;;;;33.88;35.68;101215.09;7390934;19;20014;-83
2023/05/25 07:05:04;;;;;;;1.83;0.90;;;;;;;33.95;35.61;101216.31;7391987;19;20472;-83
2023/05/25 07:07:31;;;;;;;0.40;0.30;;;;;;;33.96;35.74;101214.97;7397081;19;20056;-83
2023/05/25 07:09:58;;;;;;;2.10;0.60;;;;;;;33.93;35.59;101216.94;7391098;19;20014;-83
2023/05/25 07:12:24;;;;;;;6.18;0.45;;;;;;;33.98;35.69;101227.41;7400237;19;20014;-83
2023/05/25 07:14:50;;;;;;;9.75;1.15;;;;;;;33.68;35.77;101213.56;7395295;19;20086;-83
2023/05/25 07:17:16;;;;;;;10.57;1.67;;;;;;;33.53;36.19;101208.06;7398979;19;20035;-83
2023/05/25 07:19:43;;;;;;;4.53;0.80;;;;;;;33.42;35.80;101214.41;7396796;19;20516;-83
2023/05/25 07:22:09;;;;;;;3.60;0.73;;;;;;;33.42;36.31;101220.16;7392067;19;20046;-82
2023/05/25 07:24:36;;;;;;;1.42;0.57;;;;;;;33.47;36.15;101211.22;7394737;19;20132;-82
2023/05/25 07:27:03;;;;;;;9.07;1.75;;;;;;;33.65;36.23;101223.47;7398940;19;20010;-82
2023/05/25 07:29:30;;;;;;;5.07;0.82;;;;;;;33.55;36.63;101211.09;7392995;19;20034;-82
2023/05/25 07:31:56;;;;;;;3.63;0.38;;;;;;;33.59;35.85;101215.06;7390849;19;20014;-82
2023/05/25 07:34:22;;;;;;;2.03;0.70;;;;;;;33.59;35.98;101211.44;7391273;19;20039;-82
2023/05/25 07:36:48;;;;;;;4.70;1.35;;;;;;;33.67;35.93;101211.28;7397494;19;20014;-82
2023/05/25 07:39:14;;;;;;;6.85;1.50;;;;;;;33.79;35.91;101215.84;7392050;19;20039;-83
2023/05/25 07:41:40;;;;;;;1.90;0.55;;;;;;;33.85;35.77;101210.53;7390123;19;20015;-83
2023/05/25 07:44:06;;;;;;;4.57;1.00;;;;;;;33.92;35.73;101209.63;7390809;19;20023;-83
2023/05/25 07:46:32;;;;;;;2.00;0.75;;;;;;;34.00;36.07;101215.25;7389244;19;20497;-83
2023/05/25 07:48:59;;;;;;;1.52;0.43;;;;;;;34.09;35.66;101221.06;7394447;19;20028;-81
2023/05/25 07:51:28;;;;;;;2.97;0.65;;;;;;;34.10;35.17;101222.59;7388748;19;20014;-81
2023/05/25 07:53:55;;;;;;;7.00;1.17;;;;;;;34.12;35.08;101227.75;7391417;19;20014;-81
2023/05/25 07:56:22;;;;;;;0.82;0.80;;;;;;;34.12;35.20;101228.53;7395929;19;20042;-81
2023/05/25 07:58:48;;;;;;;1.75;0.68;;;;;;;34.17;34.96;101224.56;7393097;19;20030;-81
2023/05/25 08:01:15;;;;;;;1.92;0.45;;;;;;;33.79;36.01;101230.31;7395679;19;20021;-81
2023/05/25 08:03:41;;;;;;;4.03;0.50;;;;;;;34.39;35.51;101228.34;7389995;19;20025;-81
2023/05/25 08:06:07;;;;;;;6.13;1.33;;;;;;;34.40;34.76;101231.97;7390178;19;20023;-81
2023/05/25 08:08:35;;;;;;;3.22;0.80;;;;;;;34.44;34.99;101229.41;7389812;19;20038;-81
2023/05/25 08:11:01;;;;;;;21.90;1.38;;;;;;;34.52;34.58;101227.13;7391330;19;20035;-81
2023/05/25 08:13:27;;;;;;;2.50;1.02;;;;;;;34.64;34.58;101233.78;7396113;19;20026;-81
2023/05/25 08:15:53;;;;;;;4.72;1.83;;;;;;;34.90;34.43;101227.00;7393116;19;20018;-81
2023/05/25 08:18:19;;;;;;;2.67;0.90;;;;;;;35.04;34.73;101234.59;7393456;19;20034;-81
2023/05/25 08:20:46;;;;;;;2.13;0.55;;;;;;;35.21;34.57;101230.72;7390785;19;20027;-80
2023/05/25 08:23:12;;;;;;;3.70;0.65;;;;;;;35.42;33.55;101238.66;7387676;19;20014;-81
2023/05/25 08:25:38;;;;;;;2.17;1.13;;;;;;;35.69;33.00;101242.78;7390135;19;20014;-81
2023/05/25 08:28:10;;;;;;;5.85;0.63;;;;;;;35.78;33.37;101241.97;7391312;19;20416;-81
2023/05/25 08:30:37;;;;;;;1.15;0.50;;;;;;;35.92;33.23;101238.50;7390940;19;20495;-82
2023/05/25 08:33:04;;;;;;;1.05;0.13;;;;;;;36.15;33.35;101244.44;7390186;19;20557;-82
2023/05/25 08:35:30;;;;;;;7.78;1.55;;;;;;;34.82;35.08;101240.91;7392884;19;20006;-82
2023/05/25 08:37:56;;;;;;;4.22;0.30;;;;;;;36.73;33.35;101248.34;7392463;19;20014;-82
2023/05/25 08:40:27;;;;;;;1.67;0.35;;;;;;;29.29;38.57;101256.25;7391754;19;20074;-83
2023/05/25 08:42:53;;;;;;;1.95;0.30;;;;;;;21.49;87.50;101262.75;7388389;19;20361;-82
2023/05/25 08:45:19;;;;;;;0.43;0.25;;;;;;;19.99;100.00;101270.13;7390061;19;20014;-81
2023/05/25 08:47:47;;;;;;;4.45;0.55;;;;;;;19.10;100.00;101263.09;7389332;19;20551;-81
2023/05/25 08:50:16;;;;;;;16.65;0.73;;;;;;;18.68;100.00;101271.44;7389333;19;20026;-82
2023/05/25 08:52:45;;;;;;;2.25;0.85;;;;;;;18.59;100.00;101266.72;7391266;19;20010;-82
2023/05/25 08:55:13;;;;;;;6.32;1.23;;;;;;;18.56;100.00;101270.53;7392562;19;20050;-83
2023/05/25 08:58:27;;;;;;;4.45;0.77;;;;;;;22.61;100.00;101263.94;7393134;19;20022;-82
2023/05/25 09:00:57;;;;;;;2.90;1.38;;;;;;;19.37;100.00;101270.28;7387347;19;20021;-83
2023/05/25 09:03:24;;;;;;;5.38;1.27;;;;;;;22.12;100.00;101274.22;7387545;19;20357;-83
2023/05/25 09:05:50;;;;;;;3.10;1.13;;;;;;;28.93;57.73;101258.47;7388866;19;20369;-82
2023/05/25 09:08:17;;;;;;;8.75;1.15;;;;;;;19.95;100.00;101277.31;7387774;19;20338;-82
2023/05/25 09:10:43;;;;;;;1.17;0.40;;;;;;;19.38;100.00;101269.75;7392566;19;20012;-83
2023/05/25 09:13:09;;;;;;;0.95;0.73;;;;;;;21.54;100.00;101272.53;7390876;19;20015;-82
2023/05/25 09:15:35;;;;;;;1.25;0.25;;;;;;;21.54;100.00;101264.03;7389665;19;20015;-82
2023/05/25 09:18:01;;;;;;;1.42;0.57;;;;;;;18.97;100.00;101271.22;7390009;19;20410;-82
2023/05/25 09:20:30;;;;;;;2.92;0.65;;;;;;;18.53;100.00;101271.53;7389849;19;20019;-82
2023/05/25 09:22:58;;;;;;;3.70;0.82;;;;;;;32.36;60.61;101259.25;7390298;19;20107;-85
2023/05/25 09:25:30;;;;;;;1.85;0.52;;;;;;;35.30;46.37;101250.19;7391105;19;20010;-85
2023/05/25 09:27:59;;;;;;;1.05;0.45;;;;;;;36.18;42.37;101251.91;7388199;19;20030;-84
2023/05/25 09:30:31;;;;;;;4.30;1.52;;;;;;;36.62;39.55;101251.97;7387218;19;20018;-84
2023/05/25 09:33:16;;;;;;;4.55;0.95;;;;;;;29.05;75.90;101268.25;7393316;19;20011;-84
2023/05/25 09:35:43;;;;;;;2.92;0.40;;;;;;;23.08;95.22;101278.84;7392072;19;20010;-83
2023/05/25 09:38:14;;;;;;;2.38;1.10;;;;;;;21.01;100.00;101285.66;7395183;19;20015;-84
2023/05/25 09:40:40;;;;;;;3.63;1.35;;;;;;;22.94;100.00;101283.59;7395947;19;20035;-84
2023/05/25 09:43:06;;;;;;;1.80;0.88;;;;;;;20.57;100.00;101290.47;7394856;19;20018;-85
2023/05/25 09:45:34;;;;;;;2.30;0.40;;;;;;;20.72;100.00;101291.81;7399913;19;20348;-85
2023/05/25 09:48:01;;;;;;;4.40;0.52;;;;;;;20.42;100.00;101289.91;7394825;19;20010;-85
2023/05/25 09:50:28;;;;;;;1.15;0.22;;;;;;;21.60;100.00;101295.97;7394926;19;20350;-84
2023/05/25 09:52:59;;;;;;;1.42;0.63;;;;;;;22.96;97.52;101294.44;7398626;19;20349;-84
2023/05/25 09:55:29;;;;;;;0.82;0.55;;;;;;;24.43;89.75;101277.75;7397952;19;20015;-83
2023/05/25 09:57:55;;;;;;;2.78;0.95;;;;;;;25.26;82.69;101285.06;7398212;19;20058;-84
2023/05/25 10:00:23;;;;;;;6.18;1.75;;;;;;;25.51;73.10;101284.38;7395538;19;20022;-83
2023/05/25 10:02:50;;;;;;;0.68;0.20;;;;;;;23.91;80.23;101287.41;7392785;19;20484;-83
2023/05/25 10:05:17;;;;;;;0.90;0.30;;;;;;;24.78;78.57;101280.38;7392601;19;20014;-83
2023/05/25 10:07:45;;;;;;;4.18;0.35;;;;;;;23.45;83.48;101287.63;7393753;19;20419;-82
2023/05/25 10:10:15;;;;;;;3.83;0.55;;;;;;;24.08;83.93;101288.00;7392413;19;20425;-83
2023/05/25 10:12:43;;;;;;;0.88;0.13;;;;;;;23.82;84.95;101290.59;7396755;19;20022;-84
2023/05/25 10:15:13;;;;;;;0.70;0.20;;;;;;;24.15;81.01;101294.41;7397919;19;20422;-83
2023/05/25 10:17:44;;;;;;;0.75;0.50;;;;;;;24.23;76.68;101292.50;7395499;19;20375;-83
2023/05/25 10:20:13;;;;;;;0.40;0.13;;;;;;;23.77;77.15;101294.28;7394940;19;20025;-82
2023/05/25 10:22:45;;;;;;;1.85;0.65;;;;;;;23.63;79.42;101289.75;7392914;19;20464;-86
2023/05/25 10:25:35;;;;;;;0.98;0.63;;;;;;;23.74;80.70;101294.56;7392488;19;20042;-82
2023/05/25 10:28:06;;;;;;;1.95;0.43;;;;;;;23.94;78.23;101292.03;7395783;19;20011;-84
2023/05/25 10:30:35;;;;;;;2.85;0.47;;;;;;;32.10;55.38;101283.03;7393377;19;20029;-83
2023/05/25 10:33:02;;;;;;;1.45;0.52;;;;;;;37.24;37.56;101270.50;7395001;19;20025;-83
2023/05/25 10:35:29;;;;;;;1.65;0.45;;;;;;;38.62;33.74;101265.75;7394668;19;20014;-84
2023/05/25 10:37:55;;;;;;;2.10;0.82;;;;;;;39.17;31.77;101280.50;7395732;19;20033;-83
2023/05/25 10:40:22;;;;;;;3.00;1.20;;;;;;;39.32;30.36;101274.03;7393309;19;20036;-85
2023/05/25 10:42:52;;;;;;;0.10;0.00;;;;;;;39.38;29.16;101277.28;7394372;19;20086;-84
2023/05/25 10:45:19;;;;;;;0.50;0.50;;;;;;;39.55;28.91;101278.91;7393138;19;20014;-84
2023/05/25 10:47:45;;;;;;;0.25;0.10;;;;;;;39.61;29.05;101288.00;7393971;19;20274;-84
2023/05/25 10:50:25;;;;;;;0.88;0.20;;;;;;;39.72;28.84;101284.94;7389628;19;20028;-85
2023/05/25 10:53:14;;;;;;;0.80;0.30;;;;;;;39.49;27.88;101281.47;7394515;19;20021;-87
2023/05/25 10:55:50;;;;;;;1.48;0.88;;;;;;;39.44;28.22;101282.69;7397185;19;20030;-87
2023/05/25 10:58:18;;;;;;;1.20;0.20;;;;;;;39.54;28.33;101283.97;7394085;19;20018;-88
2023/05/25 11:01:02;;;;;;;3.70;0.25;;;;;;;39.63;27.39;101274.28;7394262;19;20134;-88
2023/05/25 11:03:46;;;;;;;3.58;0.20;;;;;;;39.72;27.05;101279.13;7392535;19;20068;-87
2023/05/25 11:06:15;;;;;;;0.40;0.30;;;;;;;39.82;27.19;101285.50;7393334;19;20014;-87
2023/05/25 11:08:54;;;;;;;0.55;0.40;;;;;;;39.91;26.56;101287.44;7390902;19;20033;-87
2023/05/25 11:11:42;;;;;;;1.33;0.10;;;;;;;40.08;26.38;101283.19;7391954;19;20117;-87
2023/05/25 11:14:32;;;;;;;6.13;0.32;;;;;;;40.37;26.81;101285.38;7395633;19;20010;-87
2023/05/25 11:17:13;;;;;;;0.20;0.10;;;;;;;40.41;26.76;101279.78;7397208;19;20492;-87
2023/05/25 11:19:42;;;;;;;;;;;;;;;40.51;27.06;101283.94;7400508;19;20085;-87
2023/05/25 11:22:32;;;;;;;3.05;0.20;;;;;;;40.48;26.18;101272.81;7392020;19;19915;-87
2023/05/25 11:24:59;;;;;;;1.40;0.20;;;;;;;40.49;24.99;101272.16;7394229;19;20468;-86
2023/05/25 11:27:30;;;;;;;0.43;0.20;;;;;;;40.38;25.46;101275.97;7396172;19;20024;-86
2023/05/25 11:29:58;;;;;;;1.05;0.20;;;;;;;40.23;25.66;101281.75;7395739;19;20014;-86